Time;durP1;ratioP1;P1;durP2;ratioP2;P2;SDS_P1;SDS_P2;PMS_P1;PMS_P2;Temp;Humidity;BMP_temperature;BMP_pressure;BME280_temperature;BME280_humidity;BME280_pressure;Samples;Min_cycle;Max_cycle;Signal;HPM_P1;HPM_P2
2021/03/01 00:00:04;;;;;;;18.30;10.30;;;6.20;99.90;;;;;;5036049;28;20638;-72
2021/03/01 00:02:43;;;;;;;;;;;;;;;;;;;;;
2021/03/01 00:05:14;;;;;;;17.70;9.90;;;6.20;99.90;;;;;;5041895;28;20651;-72
2021/03/01 00:07:43;;;;;;;22.60;11.23;;;6.20;99.90;;;;;;5035813;28;20638;-72
2021/03/01 00:10:11;;;;;;;17.30;9.57;;;6.20;99.90;;;;;;5034261;28;20619;-72
2021/03/01 00:12:39;;;;;;;20.10;10.10;;;6.10;99.90;;;;;;5038869;28;20682;-72
2021/03/01 00:15:11;;;;;;;18.30;9.97;;;6.20;99.90;;;;;;5044945;28;21268;-72
2021/03/01 00:17:39;;;;;;;17.60;9.77;;;6.20;99.90;;;;;;5039893;28;20991;-71
2021/03/01 00:20:13;;;;;;;18.67;9.30;;;6.20;99.90;;;;;;5039600;28;20633;-72
2021/03/01 00:22:45;;;;;;;17.83;9.70;;;6.10;99.90;;;;;;5036968;28;20783;-72
2021/03/01 00:25:12;;;;;;;18.73;11.03;;;6.10;99.90;;;;;;5037145;28;21187;-72
2021/03/01 00:27:40;;;;;;;17.73;9.43;;;6.20;99.90;;;;;;5038313;28;20627;-72
2021/03/01 00:30:10;;;;;;;17.87;9.00;;;6.20;99.90;;;;;;5040456;28;20614;-72
2021/03/01 00:32:39;;;;;;;16.90;9.73;;;6.20;99.90;;;;;;5040324;28;21013;-72
2021/03/01 00:35:16;;;;;;;16.27;9.53;;;6.20;99.90;;;;;;5042794;28;20634;-72
2021/03/01 00:37:44;;;;;;;15.13;9.10;;;6.20;99.90;;;;;;5043801;28;20603;-72
2021/03/01 00:40:18;;;;;;;14.13;8.30;;;6.10;99.90;;;;;;5036526;28;21267;-72
2021/03/01 00:42:46;;;;;;;13.93;8.47;;;6.10;99.90;;;;;;5024576;28;20666;-72
2021/03/01 00:45:14;;;;;;;17.80;10.17;;;6.10;99.90;;;;;;5034169;28;21253;-72
2021/03/01 00:47:42;;;;;;;15.67;9.80;;;6.10;99.90;;;;;;5033734;28;20711;-72
2021/03/01 00:50:16;;;;;;;17.60;10.00;;;6.10;99.90;;;;;;5044011;28;20634;-72
2021/03/01 00:52:44;;;;;;;16.50;9.10;;;6.20;99.90;;;;;;5043130;28;20670;-72
2021/03/01 00:55:21;;;;;;;18.00;9.73;;;6.20;99.90;;;;;;5045897;28;21299;-72
2021/03/01 00:57:53;;;;;;;15.80;9.33;;;6.30;99.90;;;;;;5035630;28;20656;-72
2021/03/01 01:00:31;;;;;;;18.67;10.27;;;6.20;99.90;;;;;;5045224;28;20693;-72
2021/03/01 01:03:01;;;;;;;16.50;9.43;;;6.20;99.90;;;;;;5046239;28;20716;-72
2021/03/01 01:05:29;;;;;;;14.00;9.40;;;6.20;99.90;;;;;;5035192;28;22666;-72
2021/03/01 01:07:59;;;;;;;17.40;9.73;;;6.10;99.90;;;;;;5040740;28;20645;-72
2021/03/01 01:10:43;;;;;;;19.40;9.97;;;6.10;99.90;;;;;;5055204;28;20786;-72
2021/03/01 01:13:12;;;;;;;17.23;9.70;;;6.10;99.90;;;;;;5038891;28;20777;-72
2021/03/01 01:15:38;;;;;;;19.23;10.57;;;6.10;99.90;;;;;;5039271;28;20639;-72
2021/03/01 01:18:05;;;;;;;19.73;10.07;;;6.10;99.90;;;;;;5044351;28;21186;-72
2021/03/01 01:20:36;;;;;;;17.47;9.60;;;6.20;99.90;;;;;;5033178;28;20529;-72
2021/03/01 01:23:10;;;;;;;17.40;10.50;;;6.20;99.90;;;;;;5057063;28;20670;-71
2021/03/01 01:25:38;;;;;;;19.30;10.87;;;6.30;99.90;;;;;;5045910;28;20993;-72
2021/03/01 01:28:09;;;;;;;20.00;10.70;;;6.30;99.90;;;;;;5044976;28;20946;-72
2021/03/01 01:30:34;;;;;;;18.30;11.20;;;6.30;99.90;;;;;;5037767;28;20629;-72
2021/03/01 01:33:02;;;;;;;14.60;10.00;;;6.30;99.90;;;;;;5041368;28;20650;-72
2021/03/01 01:35:38;;;;;;;22.30;11.30;;;6.20;99.90;;;;;;5045601;28;20235;-72
2021/03/01 01:38:04;;;;;;;18.27;10.00;;;6.20;99.90;;;;;;5037291;28;20626;-72
2021/03/01 01:40:32;;;;;;;16.40;10.47;;;6.10;99.90;;;;;;5039269;28;20628;-72
2021/03/01 01:43:21;;;;;;;19.43;11.23;;;6.10;99.90;;;;;;5050878;28;20682;-72
2021/03/01 01:45:52;;;;;;;18.67;10.23;;;6.10;99.90;;;;;;5049631;28;20661;-73
2021/03/01 01:48:20;;;;;;;24.33;11.00;;;6.20;99.90;;;;;;5063542;28;20745;-72
2021/03/01 01:50:56;;;;;;;19.40;10.60;;;6.10;99.90;;;;;;5045640;28;20619;-73
2021/03/01 01:53:27;;;;;;;21.20;10.17;;;6.20;99.90;;;;;;5049024;28;21039;-72
2021/03/01 01:55:54;;;;;;;20.00;10.77;;;6.20;99.90;;;;;;5047737;28;20689;-72
2021/03/01 01:58:27;;;;;;;15.03;10.20;;;6.20;99.90;;;;;;5044442;28;20658;-72
2021/03/01 02:00:55;;;;;;;17.93;10.30;;;6.20;99.90;;;;;;5048419;28;21008;-72
2021/03/01 02:03:29;;;;;;;19.47;10.97;;;6.30;99.90;;;;;;5043583;28;20654;-72
2021/03/01 02:06:11;;;;;;;17.73;10.37;;;6.20;99.90;;;;;;5043522;28;20669;-72
2021/03/01 02:08:58;;;;;;;21.77;11.10;;;6.20;99.90;;;;;;5044932;28;20595;-72
2021/03/01 02:12:24;;;;;;;22.37;10.73;;;6.20;99.90;;;;;;5040344;28;20642;-72
2021/03/01 02:15:15;;;;;;;16.57;9.87;;;6.20;99.90;;;;;;4967932;28;20720;-72
2021/03/01 02:17:43;;;;;;;16.30;10.60;;;6.20;99.90;;;;;;4970452;28;20758;-72
2021/03/01 02:20:12;;;;;;;19.40;10.30;;;6.20;99.90;;;;;;4983727;28;20624;-72
2021/03/01 02:22:51;;;;;;;16.90;10.40;;;6.20;99.90;;;;;;4979587;28;20816;-72
2021/03/01 02:25:30;;;;;;;15.80;9.40;;;6.20;99.90;;;;;;4972277;28;20663;-72
2021/03/01 02:28:21;;;;;;;16.30;9.53;;;6.20;99.90;;;;;;4986605;28;20629;-72
2021/03/01 02:30:54;;;;;;;13.57;9.40;;;6.20;99.90;;;;;;4987109;28;20670;-72
2021/03/01 02:33:34;;;;;;;20.40;10.33;;;6.10;99.90;;;;;;4979930;28;20668;-72
2021/03/01 02:36:07;;;;;;;18.33;9.30;;;6.10;99.90;;;;;;4980103;28;20669;-73
2021/03/01 02:38:37;;;;;;;18.20;9.70;;;6.10;99.90;;;;;;4964506;28;20625;-72
2021/03/01 02:41:10;;;;;;;18.50;10.43;;;6.20;99.90;;;;;;5025559;28;20638;-72
2021/03/01 02:43:53;;;;;;;19.30;10.80;;;6.20;99.90;;;;;;5034277;28;20699;-72
2021/03/01 02:46:25;;;;;;;17.40;9.20;;;6.20;99.90;;;;;;5046849;28;20614;-72
2021/03/01 02:49:01;;;;;;;17.03;10.43;;;6.20;99.90;;;;;;5052507;28;20653;-72
2021/03/01 02:51:33;;;;;;;16.00;9.40;;;6.20;99.90;;;;;;5045588;28;20665;-72
2021/03/01 02:54:05;;;;;;;15.50;8.40;;;6.20;99.90;;;;;;5042703;28;20642;-72
2021/03/01 02:56:36;;;;;;;14.23;9.00;;;6.30;99.90;;;;;;5040995;28;20686;-72
2021/03/01 02:59:03;;;;;;;20.40;8.77;;;6.30;99.90;;;;;;5061133;28;20650;-72
2021/03/01 03:01:30;;;;;;;14.13;8.57;;;6.20;99.90;;;;;;5041053;28;21246;-72
2021/03/01 03:04:10;;;;;;;13.13;7.40;;;6.20;99.90;;;;;;5050572;28;20658;-72
2021/03/01 03:06:40;;;;;;;12.00;6.80;;;6.20;99.90;;;;;;5043566;28;20687;-72
2021/03/01 03:09:47;;;;;;;9.20;6.47;;;6.20;99.90;;;;;;5034156;28;21051;-72
2021/03/01 03:12:20;;;;;;;12.90;6.73;;;6.20;99.90;;;;;;5038017;28;20662;-72
2021/03/01 03:14:55;;;;;;;10.93;7.00;;;6.20;99.90;;;;;;5045404;28;20664;-72
2021/03/01 03:17:33;;;;;;;12.73;7.43;;;6.20;99.90;;;;;;5036818;28;20605;-72
2021/03/01 03:20:10;;;;;;;11.70;8.17;;;6.20;99.90;;;;;;5035067;28;20726;-72
2021/03/01 03:22:41;;;;;;;10.13;7.03;;;6.20;99.90;;;;;;5042297;28;21226;-72
2021/03/01 03:25:17;;;;;;;9.40;6.97;;;6.20;99.90;;;;;;5044970;28;20646;-72
2021/03/01 03:27:51;;;;;;;9.73;6.67;;;6.20;99.90;;;;;;5033696;28;20642;-72
2021/03/01 03:30:24;;;;;;;11.93;7.00;;;6.20;99.90;;;;;;5035809;28;20644;-72
2021/03/01 03:33:00;;;;;;;11.10;6.93;;;6.20;99.90;;;;;;5034746;28;20678;-72
2021/03/01 03:35:37;;;;;;;12.43;7.23;;;6.20;99.90;;;;;;5040358;28;20819;-72
2021/03/01 03:38:15;;;;;;;14.67;7.80;;;6.20;99.90;;;;;;5040902;28;20621;-72
2021/03/01 03:40:52;;;;;;;10.37;7.10;;;6.20;99.90;;;;;;5038704;28;20619;-72
2021/03/01 03:43:30;;;;;;;13.10;7.67;;;6.20;99.90;;;;;;5041427;28;20661;-72
2021/03/01 03:46:14;;;;;;;13.27;7.90;;;6.20;99.90;;;;;;5053706;28;20717;-72
2021/03/01 03:48:44;;;;;;;15.07;8.20;;;6.20;99.90;;;;;;5049817;28;20713;-72
2021/03/01 03:51:18;;;;;;;12.87;7.60;;;6.20;99.90;;;;;;5038541;28;20666;-72
2021/03/01 03:53:48;;;;;;;13.87;7.60;;;6.20;99.90;;;;;;5041638;28;20753;-72
2021/03/01 03:56:21;;;;;;;11.43;7.43;;;6.20;99.90;;;;;;5042445;28;20658;-72
2021/03/01 03:58:54;;;;;;;10.30;6.80;;;6.10;99.90;;;;;;5043356;28;20633;-72
2021/03/01 04:01:26;;;;;;;12.53;7.27;;;6.10;99.90;;;;;;5044164;28;20650;-72
2021/03/01 04:03:57;;;;;;;10.33;6.90;;;6.10;99.90;;;;;;5043410;28;21152;-72
2021/03/01 04:06:25;;;;;;;10.40;6.90;;;6.10;99.90;;;;;;5039375;28;20738;-72
2021/03/01 04:09:20;;;;;;;10.50;6.63;;;6.10;99.90;;;;;;5027451;28;20651;-72
2021/03/01 04:11:52;;;;;;;11.67;7.00;;;6.10;99.90;;;;;;5039721;28;20669;-72
2021/03/01 04:14:32;;;;;;;8.90;6.87;;;6.10;99.90;;;;;;5042130;28;20641;-72
2021/03/01 04:17:16;;;;;;;10.03;7.37;;;6.10;99.90;;;;;;5038248;28;20685;-72
2021/03/01 04:19:49;;;;;;;12.30;6.70;;;6.10;99.90;;;;;;5039340;28;20630;-72
2021/03/01 04:22:16;;;;;;;11.53;6.80;;;6.10;99.90;;;;;;5040142;28;20990;-72
2021/03/01 04:24:45;;;;;;;10.57;7.10;;;6.10;99.90;;;;;;5043124;28;20641;-71
2021/03/01 04:27:11;;;;;;;11.87;7.67;;;6.10;99.90;;;;;;5059512;28;20674;-72
2021/03/01 04:29:37;;;;;;;12.00;7.30;;;6.10;99.90;;;;;;5069866;28;20638;-72
2021/03/01 04:32:03;;;;;;;11.23;6.97;;;6.10;99.90;;;;;;5041234;28;20805;-72
2021/03/01 04:34:35;;;;;;;10.20;6.87;;;6.10;99.90;;;;;;5037065;28;20799;-72
2021/03/01 04:37:13;;;;;;;;;;;;;;;;;;;;;
2021/03/01 04:39:44;;;;;;;11.77;7.00;;;6.10;99.90;;;;;;5042611;28;20593;-72
2021/03/01 04:42:12;;;;;;;10.67;6.97;;;6.10;99.90;;;;;;5045088;28;20789;-72
2021/03/01 04:44:51;;;;;;;11.13;7.47;;;6.10;99.90;;;;;;5029286;28;20627;-72
2021/03/01 04:47:17;;;;;;;13.30;7.70;;;6.10;99.90;;;;;;5031257;28;20630;-72
2021/03/01 04:49:50;;;;;;;14.80;7.23;;;6.10;99.90;;;;;;5045979;28;20690;-72
2021/03/01 04:52:21;;;;;;;10.83;7.27;;;6.10;99.90;;;;;;5035405;28;20713;-72
2021/03/01 04:55:10;;;;;;;10.90;7.60;;;6.10;99.90;;;;;;5044427;28;20626;-72
2021/03/01 04:57:48;;;;;;;10.27;6.57;;;6.10;99.90;;;;;;5035011;28;20619;-72
2021/03/01 05:00:32;;;;;;;9.80;5.83;;;6.00;99.90;;;;;;5036258;28;20705;-72
2021/03/01 05:03:04;;;;;;;8.50;6.33;;;6.00;99.90;;;;;;5059489;28;20915;-72
2021/03/01 05:05:38;;;;;;;10.30;6.70;;;6.10;99.90;;;;;;5061313;28;20740;-72
2021/03/01 05:08:18;;;;;;;11.80;6.90;;;6.10;99.90;;;;;;5030661;28;20641;-72
2021/03/01 05:10:56;;;;;;;8.77;6.00;;;6.00;99.90;;;;;;5048650;28;21116;-72
2021/03/01 05:13:32;;;;;;;9.43;6.37;;;6.10;99.90;;;;;;5060556;28;20678;-71
2021/03/01 05:16:08;;;;;;;10.17;6.43;;;6.10;99.90;;;;;;5050799;28;20642;-72
2021/03/01 05:18:34;;;;;;;11.50;6.90;;;6.10;99.90;;;;;;5037886;28;20701;-72
2021/03/01 05:21:02;;;;;;;13.00;7.70;;;6.10;99.90;;;;;;5060079;28;20645;-72
2021/03/01 05:23:33;;;;;;;12.37;7.30;;;6.10;99.90;;;;;;5041510;28;20223;-71
2021/03/01 05:26:09;;;;;;;14.73;8.87;;;6.10;99.90;;;;;;5047219;28;20622;-72
2021/03/01 05:28:37;;;;;;;13.33;8.70;;;6.10;99.90;;;;;;5043532;28;20721;-72
2021/03/01 05:31:11;;;;;;;14.57;8.83;;;6.00;99.90;;;;;;5048062;28;21222;-72
2021/03/01 05:33:47;;;;;;;14.90;9.17;;;6.00;99.90;;;;;;5041770;28;20740;-72
2021/03/01 05:36:23;;;;;;;13.27;7.93;;;6.10;99.90;;;;;;5036484;28;20646;-72
2021/03/01 05:38:51;;;;;;;14.80;9.13;;;6.10;99.90;;;;;;5041816;28;20629;-72
2021/03/01 05:41:46;;;;;;;13.23;9.23;;;6.00;99.90;;;;;;5038774;28;20635;-72
2021/03/01 05:44:16;;;;;;;14.83;8.27;;;6.00;99.90;;;;;;5024532;23;21241;-65
2021/03/01 05:46:43;;;;;;;12.60;8.07;;;6.00;99.90;;;;;;4985529;28;20655;-63
2021/03/01 05:49:32;;;;;;;12.53;7.97;;;6.00;99.90;;;;;;5009449;28;21126;-62
2021/03/01 05:52:01;;;;;;;10.60;7.37;;;6.10;99.90;;;;;;4995937;28;21180;-65
2021/03/01 05:54:35;;;;;;;12.30;7.70;;;6.10;99.90;;;;;;4993690;28;20643;-65
2021/03/01 05:57:17;;;;;;;12.57;8.53;;;6.10;99.90;;;;;;5002316;28;20726;-62
2021/03/01 05:59:51;;;;;;;11.33;7.33;;;6.10;99.90;;;;;;5016896;28;21059;-63
2021/03/01 06:02:20;;;;;;;12.77;8.37;;;5.90;99.90;;;;;;5004005;28;20674;-63
2021/03/01 06:04:51;;;;;;;14.43;8.77;;;6.00;99.90;;;;;;5004722;28;20640;-63
2021/03/01 06:07:30;;;;;;;11.40;8.87;;;6.00;99.90;;;;;;5007391;28;20648;-63
2021/03/01 06:09:55;;;;;;;11.70;7.40;;;6.00;99.90;;;;;;5007344;28;21271;-62
2021/03/01 06:12:28;;;;;;;12.17;7.20;;;5.90;99.90;;;;;;5012225;28;20619;-64
2021/03/01 06:15:07;;;;;;;12.07;8.23;;;5.90;99.90;;;;;;5015091;28;20609;-63
2021/03/01 06:17:39;;;;;;;8.80;6.70;;;5.90;99.90;;;;;;5004525;28;20670;-63
2021/03/01 06:20:14;;;;;;;12.70;8.30;;;5.90;99.90;;;;;;5007328;28;21005;-64
2021/03/01 06:22:44;;;;;;;12.53;7.63;;;5.90;99.90;;;;;;5003420;28;21231;-63
2021/03/01 06:25:22;;;;;;;10.83;7.37;;;5.90;99.90;;;;;;5006930;28;20716;-63
2021/03/01 06:28:02;;;;;;;13.07;8.03;;;5.90;99.90;;;;;;5005156;28;20643;-63
2021/03/01 06:30:28;;;;;;;11.37;7.80;;;5.80;99.90;;;;;;5004828;28;20736;-62
2021/03/01 06:33:15;;;;;;;10.30;6.93;;;5.90;99.90;;;;;;5002890;28;20755;-63
2021/03/01 06:35:51;;;;;;;11.53;7.80;;;5.90;99.90;;;;;;5001801;28;20232;-65
2021/03/01 06:38:35;;;;;;;10.90;7.23;;;5.90;99.90;;;;;;5002725;28;20636;-66
2021/03/01 06:44:12;;;;;;;10.80;6.57;;;5.90;99.90;;;;;;5000378;28;20671;-66
2021/03/01 06:46:51;;;;;;;10.83;7.07;;;5.90;99.90;;;;;;5007534;28;20601;-65
2021/03/01 06:49:25;;;;;;;12.27;7.10;;;5.90;99.90;;;;;;5026144;28;20618;-65
2021/03/01 06:51:53;;;;;;;9.80;7.10;;;5.90;99.90;;;;;;5020906;28;20707;-65
2021/03/01 06:54:23;;;;;;;10.93;7.00;;;5.90;99.90;;;;;;5011316;28;20629;-65
2021/03/01 06:56:48;;;;;;;11.10;6.97;;;5.80;99.90;;;;;;5006838;28;20722;-66
2021/03/01 06:59:18;;;;;;;10.27;6.83;;;5.70;99.90;;;;;;5009306;28;20656;-65
2021/03/01 07:01:59;;;;;;;9.67;6.57;;;5.70;99.90;;;;;;5009403;28;20185;-65
2021/03/01 07:04:34;;;;;;;10.57;6.60;;;5.70;99.90;;;;;;4998944;28;20644;-69
2021/03/01 07:07:25;;;;;;;11.30;6.77;;;5.60;99.90;;;;;;5005770;28;21260;-65
2021/03/01 07:10:05;;;;;;;9.63;6.70;;;5.60;99.90;;;;;;5009545;28;20973;-65
2021/03/01 07:12:46;;;;;;;12.40;6.83;;;5.70;99.90;;;;;;5004179;28;20636;-66
2021/03/01 07:15:15;;;;;;;7.80;6.10;;;5.70;99.90;;;;;;5020068;28;20707;-65
2021/03/01 07:17:46;;;;;;;8.30;5.77;;;5.70;99.90;;;;;;5027193;28;20604;-66
2021/03/01 07:20:16;;;;;;;9.53;6.53;;;5.60;99.90;;;;;;5013826;28;20619;-66
2021/03/01 07:37:00;;;;;;;10.73;6.40;;;5.80;99.90;;;;;;4846171;29;20694;-69
2021/03/01 07:39:29;;;;;;;12.60;7.20;;;5.70;99.90;;;;;;4847737;29;21380;-67
2021/03/01 07:41:57;;;;;;;10.33;6.93;;;5.60;99.90;;;;;;4863108;29;21434;-66
2021/03/01 07:45:00;;;;;;;11.13;6.87;;;5.60;99.90;;;;;;4849295;29;20668;-66
2021/03/01 07:47:28;;;;;;;9.10;6.30;;;5.70;99.90;;;;;;4844150;29;20642;-69
2021/03/01 07:50:14;;;;;;;10.60;6.37;;;5.70;99.90;;;;;;4850038;29;20631;-66
2021/03/01 07:52:40;;;;;;;12.20;7.03;;;5.70;99.90;;;;;;4856001;29;20645;-67
2021/03/01 07:55:10;;;;;;;11.10;7.90;;;5.80;99.90;;;;;;4854874;29;20647;-67
2021/03/01 07:57:38;;;;;;;9.67;7.30;;;5.80;99.90;;;;;;4909955;29;20209;-70
2021/03/01 08:00:36;;;;;;;12.60;8.50;;;5.80;99.90;;;;;;4899831;29;20704;-67
2021/03/01 08:03:34;;;;;;;13.47;8.33;;;5.80;99.90;;;;;;4877749;29;20807;-66
2021/03/01 08:06:02;;;;;;;14.77;8.10;;;5.90;99.90;;;;;;4915457;28;20729;-67
2021/03/01 08:08:48;;;;;;;14.53;8.80;;;5.90;99.90;;;;;;4943096;28;20639;-66
2021/03/01 08:11:15;;;;;;;13.37;8.63;;;6.00;99.90;;;;;;5005034;28;21200;-66
2021/03/01 08:13:41;;;;;;;13.47;8.30;;;6.00;99.90;;;;;;5001569;28;20687;-70
2021/03/01 08:16:23;;;;;;;12.77;8.10;;;5.90;99.90;;;;;;5001538;28;20753;-66
2021/03/01 08:18:53;;;;;;;13.73;9.03;;;6.00;99.90;;;;;;4989248;28;20191;-67
2021/03/01 08:21:20;;;;;;;16.00;9.73;;;6.00;99.90;;;;;;5004392;28;20612;-67
2021/03/01 08:23:48;;;;;;;16.90;10.70;;;6.00;99.90;;;;;;5000817;28;21296;-66
2021/03/01 08:26:34;;;;;;;16.20;9.10;;;6.00;99.90;;;;;;5015240;28;20994;-66
2021/03/01 08:29:16;;;;;;;15.80;9.53;;;6.00;99.90;;;;;;5004974;28;21206;-66
2021/03/01 08:31:42;;;;;;;16.83;9.50;;;5.90;99.90;;;;;;5004719;28;20683;-73
2021/03/01 08:34:28;;;;;;;14.47;9.00;;;6.00;99.90;;;;;;5021705;28;20762;-66
2021/03/01 08:36:55;;;;;;;15.50;9.67;;;6.00;99.90;;;;;;5018809;28;20663;-66
2021/03/01 08:39:58;;;;;;;15.43;9.67;;;6.00;99.90;;;;;;5003543;28;20636;-69
2021/03/01 08:42:42;;;;;;;14.80;9.97;;;6.20;99.90;;;;;;5008967;28;22298;-68
2021/03/01 08:45:09;;;;;;;14.63;9.53;;;6.10;99.90;;;;;;5006918;28;20644;-67
2021/03/01 08:47:56;;;;;;;17.40;11.07;;;6.10;99.90;;;;;;5011031;28;20628;-66
2021/03/01 08:50:34;;;;;;;14.30;9.70;;;6.00;99.90;;;;;;4995298;28;21344;-67
2021/03/01 08:53:00;;;;;;;13.23;9.10;;;5.90;99.90;;;;;;4995323;28;20668;-67
2021/03/01 08:55:27;;;;;;;17.37;10.07;;;5.90;99.90;;;;;;4994487;28;20655;-69
2021/03/01 08:58:05;;;;;;;14.57;9.37;;;5.90;99.90;;;;;;5014438;28;20198;-66
2021/03/01 09:00:36;;;;;;;16.90;9.90;;;6.00;99.90;;;;;;4997003;28;21176;-67
2021/03/01 09:03:21;;;;;;;15.47;9.07;;;5.90;99.90;;;;;;5001592;28;21240;-65
2021/03/01 09:05:49;;;;;;;15.43;10.13;;;5.90;99.90;;;;;;5004698;28;20647;-66
2021/03/01 09:08:22;;;;;;;14.07;9.37;;;6.00;99.90;;;;;;4999907;28;20627;-66
2021/03/01 09:10:47;;;;;;;16.27;9.10;;;6.00;99.90;;;;;;4996692;28;20668;-67
2021/03/01 09:13:19;;;;;;;13.03;8.90;;;6.10;99.90;;;;;;5002810;28;21086;-67
2021/03/01 09:15:45;;;;;;;11.43;8.10;;;6.10;99.90;;;;;;5001234;28;20213;-67
2021/03/01 09:18:11;;;;;;;15.60;9.07;;;6.10;99.90;;;;;;5012759;28;20663;-69
2021/03/01 09:20:46;;;;;;;14.47;9.20;;;6.20;99.90;;;;;;5000518;28;20628;-68
2021/03/01 09:23:12;;;;;;;13.93;9.53;;;6.20;99.90;;;;;;4996029;28;20691;-66
2021/03/01 09:25:41;;;;;;;15.40;9.77;;;6.20;99.90;;;;;;4994670;28;21098;-67
2021/03/01 09:28:09;;;;;;;12.10;9.07;;;6.20;99.90;;;;;;5003687;28;20702;-68
2021/03/01 09:30:36;;;;;;;16.17;9.97;;;6.20;99.90;;;;;;5016873;28;21171;-67
2021/03/01 09:33:09;;;;;;;12.90;9.53;;;6.20;99.90;;;;;;4999236;28;20752;-69
2021/03/01 09:35:37;;;;;;;15.50;9.30;;;6.30;99.90;;;;;;4998997;28;20652;-66
2021/03/01 09:38:04;;;;;;;13.40;8.63;;;6.40;99.90;;;;;;4999601;28;20625;-68
2021/03/01 09:40:41;;;;;;;12.63;7.97;;;6.50;99.90;;;;;;4997530;28;21284;-67
2021/03/01 09:43:06;;;;;;;15.13;9.63;;;6.40;99.90;;;;;;4999567;28;20686;-69
2021/03/01 09:45:38;;;;;;;15.90;9.60;;;6.30;99.90;;;;;;5018385;28;21007;-67
2021/03/01 09:48:07;;;;;;;14.43;10.63;;;6.30;99.90;;;;;;5023689;28;20336;-67
2021/03/01 09:50:37;;;;;;;14.70;9.40;;;6.40;99.90;;;;;;5003693;28;20654;-69
2021/03/01 09:53:09;;;;;;;14.00;9.00;;;6.50;99.90;;;;;;5003593;28;20706;-66
2021/03/01 09:55:38;;;;;;;17.57;9.87;;;6.60;99.90;;;;;;5003462;28;20652;-69
2021/03/01 09:58:26;;;;;;;15.27;10.13;;;6.60;99.90;;;;;;5003956;28;21259;-67
2021/03/01 10:01:04;;;;;;;16.27;9.77;;;6.70;99.90;;;;;;5003615;28;20625;-67
2021/03/01 10:03:38;;;;;;;13.53;9.67;;;6.70;99.90;;;;;;5013984;28;20652;-67
2021/03/01 10:06:04;;;;;;;16.63;9.97;;;6.80;99.90;;;;;;4990322;28;20632;-68
2021/03/01 10:08:29;;;;;;;16.10;10.10;;;6.80;99.90;;;;;;4997879;28;20655;-67
2021/03/01 10:10:57;;;;;;;14.63;9.03;;;7.00;99.90;;;;;;5002484;28;20647;-67
2021/03/01 10:13:34;;;;;;;14.00;9.57;;;7.00;99.90;;;;;;5018768;28;20315;-67
2021/03/01 10:16:05;;;;;;;14.43;9.57;;;7.10;99.90;;;;;;5009047;28;20783;-68
2021/03/01 10:18:34;;;;;;;15.93;11.10;;;7.00;99.90;;;;;;5004237;28;20664;-67
2021/03/01 10:21:04;;;;;;;12.60;9.20;;;7.00;99.90;;;;;;5007924;28;21185;-67
2021/03/01 10:23:42;;;;;;;14.80;9.90;;;7.10;99.90;;;;;;5007476;28;20643;-67
2021/03/01 10:26:22;;;;;;;15.77;10.30;;;7.20;99.90;;;;;;5005295;28;20639;-67
2021/03/01 10:28:55;;;;;;;14.57;9.73;;;7.40;99.90;;;;;;5008031;28;20771;-67
2021/03/01 10:31:27;;;;;;;15.07;9.40;;;7.60;99.90;;;;;;5008389;28;20632;-67
2021/03/01 10:33:58;;;;;;;14.90;9.40;;;7.60;99.90;;;;;;5001420;28;21046;-67
2021/03/01 10:36:25;;;;;;;13.63;9.73;;;7.80;99.90;;;;;;5001708;28;20667;-67
2021/03/01 10:38:58;;;;;;;14.37;8.93;;;8.00;99.90;;;;;;5008267;28;20644;-67
2021/03/01 10:41:26;;;;;;;12.33;9.53;;;8.00;99.90;;;;;;4996279;28;20652;-70
2021/03/01 10:44:02;;;;;;;16.30;9.80;;;8.10;99.90;;;;;;5000847;28;21124;-68
2021/03/01 10:46:31;;;;;;;14.40;10.33;;;8.20;99.90;;;;;;4998693;28;20660;-69
2021/03/01 10:49:00;;;;;;;17.93;10.17;;;8.30;99.90;;;;;;5016201;28;20996;-68
2021/03/01 10:51:25;;;;;;;15.17;10.53;;;8.30;99.90;;;;;;5012913;28;20628;-69
2021/03/01 10:53:51;;;;;;;14.60;9.60;;;8.30;99.90;;;;;;4998812;28;20654;-68
2021/03/01 10:56:20;;;;;;;14.03;9.60;;;8.40;99.90;;;;;;4997434;28;20312;-68
2021/03/01 10:58:46;;;;;;;13.87;10.20;;;8.40;99.90;;;;;;5007155;28;20201;-68
2021/03/01 11:01:13;;;;;;;15.60;9.97;;;8.30;99.90;;;;;;5020630;28;20692;-68
2021/03/01 11:03:44;;;;;;;12.70;9.83;;;8.40;99.90;;;;;;5019988;28;20663;-68
2021/03/01 11:06:09;;;;;;;13.87;10.57;;;8.50;99.90;;;;;;4995293;28;20974;-67
2021/03/01 11:08:35;;;;;;;14.27;10.17;;;8.60;99.90;;;;;;5004244;28;20627;-68
2021/03/01 11:11:00;;;;;;;13.60;10.20;;;8.70;99.90;;;;;;5006854;28;20305;-67
2021/03/01 11:13:26;;;;;;;15.03;9.90;;;8.90;99.90;;;;;;5006274;28;20220;-67
2021/03/01 11:15:51;;;;;;;15.63;9.87;;;8.90;99.90;;;;;;4996634;28;21016;-69
2021/03/01 11:18:17;;;;;;;14.77;9.80;;;9.00;99.90;;;;;;5001908;28;20253;-68
2021/03/01 11:20:42;;;;;;;13.20;9.57;;;9.10;99.90;;;;;;5003152;28;20224;-68
2021/03/01 11:23:08;;;;;;;13.00;9.23;;;9.10;99.90;;;;;;4997871;28;20210;-68
2021/03/01 11:25:36;;;;;;;12.73;10.30;;;9.30;99.90;;;;;;5001993;28;20189;-68
2021/03/01 11:28:02;;;;;;;12.80;9.20;;;9.40;99.90;;;;;;5005386;28;20638;-67
2021/03/01 11:30:30;;;;;;;13.33;9.30;;;9.40;99.90;;;;;;5006491;28;20720;-70
2021/03/01 11:32:56;;;;;;;15.30;10.67;;;9.30;99.90;;;;;;5003198;28;20240;-67
2021/03/01 11:35:21;;;;;;;12.40;9.50;;;9.40;99.90;;;;;;4995911;28;20720;-68
2021/03/01 11:37:47;;;;;;;15.30;10.83;;;9.50;99.90;;;;;;5005195;28;20192;-68
2021/03/01 11:40:13;;;;;;;12.97;10.20;;;9.40;99.90;;;;;;5000063;28;20597;-68
2021/03/01 11:42:43;;;;;;;13.03;9.50;;;9.50;99.90;;;;;;5001605;28;20239;-65
2021/03/01 11:45:12;;;;;;;13.60;10.20;;;9.60;99.90;;;;;;5005867;28;20659;-65
2021/03/01 11:47:37;;;;;;;13.87;10.43;;;9.80;99.90;;;;;;4994454;28;20723;-65
2021/03/01 11:50:06;;;;;;;14.33;9.20;;;9.90;99.90;;;;;;5001405;28;20715;-65
2021/03/01 11:52:31;;;;;;;18.50;9.53;;;10.10;99.90;;;;;;5008604;28;20214;-65
2021/03/01 11:54:59;;;;;;;11.37;9.30;;;10.10;99.90;;;;;;4990285;28;20785;-62
2021/03/01 11:57:28;;;;;;;12.40;9.50;;;10.40;99.90;;;;;;4995292;28;20683;-65
2021/03/01 11:59:54;;;;;;;12.87;9.50;;;10.50;99.90;;;;;;4998182;28;20640;-64
2021/03/01 12:02:22;;;;;;;11.67;9.43;;;10.70;99.90;;;;;;4977076;28;20952;-65
2021/03/01 12:15:32;;;;;;;13.47;8.80;;;12.10;99.90;;;;;;4828968;29;20778;-65
2021/03/01 12:24:41;;;;;;;10.77;7.97;;;14.90;99.90;;;;;;4845684;29;20699;-66
2021/03/01 12:27:09;;;;;;;8.87;7.97;;;16.80;99.90;;;;;;4909741;29;20632;-65
2021/03/01 12:29:34;;;;;;;10.60;9.20;;;18.50;99.90;;;;;;4892429;29;20208;-64
2021/03/01 12:32:00;;;;;;;10.70;9.43;;;20.20;99.90;;;;;;4900855;29;20624;-66
2021/03/01 12:34:25;;;;;;;11.40;10.23;;;22.00;99.90;;;;;;4915036;29;20301;-65
2021/03/01 12:36:51;;;;;;;11.30;10.20;;;23.70;98.00;;;;;;4920550;29;20302;-66
2021/03/01 12:39:16;;;;;;;11.50;10.40;;;25.30;92.90;;;;;;4909860;29;20313;-67
2021/03/01 12:41:42;;;;;;;10.70;9.80;;;26.70;83.90;;;;;;4914357;29;20280;-67
2021/03/01 12:44:08;;;;;;;10.93;10.03;;;27.70;77.80;;;;;;4978150;28;20311;-66
2021/03/01 12:46:39;;;;;;;10.40;9.50;;;29.00;68.70;;;;;;4998034;28;20243;-67
2021/03/01 12:49:04;;;;;;;10.60;9.70;;;29.90;63.50;;;;;;4998719;28;20185;-67
2021/03/01 12:51:30;;;;;;;10.77;9.87;;;30.90;59.30;;;;;;4993328;28;20644;-67
2021/03/01 12:53:59;;;;;;;10.70;9.63;;;31.90;54.30;;;;;;4995854;28;20224;-66
2021/03/01 12:56:24;;;;;;;9.77;9.03;;;32.80;53.70;;;;;;4992975;28;20578;-68
2021/03/01 12:58:50;;;;;;;9.80;8.90;;;33.50;49.30;;;;;;4996958;28;20635;-68
2021/03/01 13:01:18;;;;;;;9.23;8.53;;;34.00;47.90;;;;;;4997232;28;20189;-68
2021/03/01 13:03:44;;;;;;;9.87;8.87;;;34.50;47.10;;;;;;4995597;28;20632;-67
2021/03/01 13:06:10;;;;;;;9.50;8.70;;;34.90;45.50;;;;;;4999787;28;20647;-68
2021/03/01 13:08:38;;;;;;;8.67;8.00;;;35.40;44.60;;;;;;4996400;28;20235;-68
2021/03/01 13:11:03;;;;;;;9.10;8.40;;;35.60;44.10;;;;;;5015038;28;21299;-69
2021/03/01 13:13:29;;;;;;;9.30;8.63;;;36.00;42.80;;;;;;4992926;28;20651;-68
2021/03/01 13:15:54;;;;;;;8.63;8.00;;;36.00;42.10;;;;;;5005577;28;20208;-67
2021/03/01 13:18:22;;;;;;;8.83;8.13;;;36.20;39.70;;;;;;4999759;28;20193;-67
2021/03/01 13:20:53;;;;;;;9.00;8.30;;;36.00;40.60;;;;;;5008764;28;20201;-68
2021/03/01 13:23:19;;;;;;;9.70;8.90;;;36.00;41.60;;;;;;5003011;28;20705;-68
2021/03/01 13:25:45;;;;;;;8.60;7.90;;;36.00;41.10;;;;;;5022417;28;20201;-68
2021/03/01 13:28:10;;;;;;;9.00;8.30;;;35.80;41.00;;;;;;5005513;28;21126;-68
2021/03/01 13:30:36;;;;;;;10.00;9.20;;;35.40;39.60;;;;;;5011459;28;20203;-68
2021/03/01 13:33:04;;;;;;;9.63;8.83;;;34.90;41.00;;;;;;5011787;28;20232;-68
2021/03/01 13:35:30;;;;;;;9.30;8.60;;;34.20;39.60;;;;;;5004499;28;20225;-68
2021/03/01 13:38:00;;;;;;;9.10;8.37;;;33.70;41.20;;;;;;5010050;28;20652;-69
2021/03/01 13:40:29;;;;;;;8.73;8.03;;;33.00;42.20;;;;;;5009470;28;20194;-68
2021/03/01 13:42:57;;;;;;;9.20;8.40;;;32.50;42.40;;;;;;5003039;28;21409;-67
2021/03/01 13:45:23;;;;;;;9.17;8.27;;;31.80;42.80;;;;;;5002290;28;20631;-68
2021/03/01 13:47:50;;;;;;;9.17;8.37;;;31.10;43.70;;;;;;5007151;28;21152;-68